Aydlett, North Carolina
Current Conditions -  °F | °C
As of 6:10 AM on Tuesday 21 Oct 2014 (Local Time) from KONX Reporting Station
Scattered Clouds Scattered Clouds  
Wind Chill: 59°   Ceiling: Unl
Heat Index: 59°   Visibility: 10mi
Dew Point: 57°   Wind: 0mph
Humidity: 94%   Direction: NA
Pressure: 29.92"   Gusts: NA
Location:  36.33°N, 75.91°W
Report Text: KONX 211010Z AUTO 00000KT 10SM SCT070 15/14 A2992 RMK AO2 T01510141
Loading
Personal Weather Stations






























Interactive Weather Map
Tropical Storm Tracking
New forecast layout! Learn more

10-Day Weather Forecast

Advertisements
Track Severe Weather on mobile